Springfield, Massachusetts
Current Conditions -  °F | °C
As of 2:46 AM on Sunday 23 Nov 2014 (Local Time) from KCEF Reporting Station
Broken Clouds Broken Clouds  
Wind Chill: 36°   Ceiling: 7000
Heat Index: 41°   Visibility: 10mi
Dew Point: 23°   Wind: 8mph
Humidity: 49%   Direction: 190°S
Pressure: 30.09"   Gusts: NA
Location:  42.1°N, 72.59°W
Report Text: KCEF 230746Z AUTO 19007KT 10SM FEW040 BKN070 BKN100 05/M05 A3009 RMK AO2
Loading
Personal Weather Stations






























Interactive Weather Map New forecast layout! Learn more

10-Day Weather Forecast

Advertisements
Track Severe Weather on mobile